createdAt,value
2023-03-28T00:00:02.121Z,2.92
2023-03-28T00:02:38.615Z,2.88
2023-03-28T00:05:05.361Z,2.93
2023-03-28T00:07:34.524Z,3.06
2023-03-28T00:10:01.872Z,2.85
2023-03-28T00:12:28.584Z,2.75
2023-03-28T00:14:57.596Z,2.88
2023-03-28T00:17:24.645Z,2.58
2023-03-28T00:19:56.251Z,2.52
2023-03-28T00:22:25.153Z,2.49
2023-03-28T00:24:53.977Z,2.40
2023-03-28T00:27:20.583Z,2.42
2023-03-28T00:29:47.247Z,2.58
2023-03-28T00:32:13.804Z,2.47
2023-03-28T00:34:42.912Z,2.45
2023-03-28T00:37:10.767Z,2.64
2023-03-28T00:39:37.686Z,2.57
2023-03-28T00:42:04.567Z,2.55
2023-03-28T00:44:45.355Z,2.50
2023-03-28T00:47:30.990Z,2.54
2023-03-28T00:50:03.040Z,2.51
2023-03-28T00:52:34.574Z,2.57
2023-03-28T00:55:01.176Z,2.63
2023-03-28T00:57:30.308Z,2.75
2023-03-28T00:59:56.968Z,2.75
2023-03-28T01:02:24.059Z,2.71
2023-03-28T01:04:55.298Z,2.50
2023-03-28T01:07:22.789Z,2.33
2023-03-28T01:09:51.641Z,2.24
2023-03-28T01:12:18.368Z,2.45
2023-03-28T01:14:47.789Z,2.68
2023-03-28T01:17:16.183Z,2.78
2023-03-28T01:19:47.971Z,2.59
2023-03-28T01:22:33.301Z,2.59
2023-03-28T01:25:16.683Z,2.40
2023-03-28T01:28:05.633Z,2.45
2023-03-28T01:30:49.195Z,2.38
2023-03-28T01:33:51.025Z,2.38
2023-03-28T01:36:33.987Z,2.50
2023-03-28T01:39:24.455Z,2.34
2023-03-28T01:41:56.769Z,2.20
2023-03-28T01:44:34.231Z,2.30
2023-03-28T01:47:10.003Z,2.26
2023-03-28T01:49:46.270Z,2.29
2023-03-28T01:52:28.344Z,2.17
2023-03-28T01:54:55.664Z,2.14
2023-03-28T01:57:27.309Z,2.06
2023-03-28T02:00:04.135Z,2.07
2023-03-28T02:02:39.161Z,2.01
2023-03-28T02:05:23.851Z,2.14
2023-03-28T02:07:54.663Z,2.17
2023-03-28T02:10:32.748Z,2.17
2023-03-28T02:13:04.175Z,2.04
2023-03-28T02:15:48.140Z,2.00
2023-03-28T02:18:39.407Z,2.02
2023-03-28T02:21:50.822Z,1.93
2023-03-28T02:24:52.204Z,1.85
2023-03-28T02:27:39.550Z,1.78
2023-03-28T02:30:29.084Z,1.79
2023-03-28T02:33:01.678Z,1.86
2023-03-28T02:35:30.894Z,1.92
2023-03-28T02:38:07.037Z,1.78
2023-03-28T02:40:36.735Z,1.77
2023-03-28T02:43:05.858Z,1.73
2023-03-28T02:45:44.045Z,1.68
2023-03-28T02:48:13.809Z,1.73
2023-03-28T02:50:49.637Z,1.78
2023-03-28T02:53:27.244Z,1.80
2023-03-28T02:56:04.992Z,1.84
2023-03-28T02:58:50.229Z,1.84
2023-03-28T03:01:18.243Z,1.84
2023-03-28T03:03:45.906Z,1.70
2023-03-28T03:06:14.953Z,1.58
2023-03-28T03:08:41.497Z,1.48
2023-03-28T03:11:08.184Z,1.48
2023-03-28T03:13:34.895Z,1.44
2023-03-28T03:16:04.118Z,1.35
2023-03-28T03:18:32.479Z,1.34
2023-03-28T03:21:02.090Z,1.30
2023-03-28T03:23:31.255Z,1.36
2023-03-28T03:26:02.941Z,1.37
2023-03-28T03:28:38.018Z,1.30
2023-03-28T03:31:06.863Z,1.29
2023-03-28T03:33:55.005Z,1.16
2023-03-28T03:36:27.293Z,1.16
2023-03-28T03:38:54.114Z,1.16
2023-03-28T03:41:22.677Z,1.15
2023-03-28T03:43:49.354Z,1.20
2023-03-28T03:46:16.065Z,1.23
2023-03-28T03:48:49.450Z,1.19
2023-03-28T03:51:17.447Z,1.21
2023-03-28T03:53:50.651Z,1.28
2023-03-28T03:56:21.241Z,1.29
2023-03-28T03:58:58.671Z,1.35
2023-03-28T04:01:35.649Z,1.28
2023-03-28T04:04:19.250Z,1.24
2023-03-28T04:07:04.573Z,1.23
2023-03-28T04:09:34.134Z,1.20
2023-03-28T04:12:07.773Z,1.18
2023-03-28T04:14:45.104Z,1.24
2023-03-28T04:17:44.501Z,1.23
2023-03-28T04:20:17.758Z,1.23
2023-03-28T04:23:06.012Z,1.14
2023-03-28T04:25:34.199Z,1.07
2023-03-28T04:28:11.810Z,1.10
2023-03-28T04:30:53.370Z,1.03
2023-03-28T04:33:40.127Z,1.00
2023-03-28T04:36:09.552Z,1.04
2023-03-28T04:38:36.524Z,1.03
2023-03-28T04:41:35.185Z,1.09
2023-03-28T04:44:02.064Z,1.11
2023-03-28T04:46:32.466Z,1.14
2023-03-28T04:49:11.038Z,1.15
2023-03-28T04:51:37.761Z,1.16
2023-03-28T04:54:04.504Z,1.20
2023-03-28T04:56:48.342Z,1.26
2023-03-28T04:59:21.612Z,1.31
2023-03-28T05:01:54.273Z,1.36
2023-03-28T05:04:40.705Z,1.39
2023-03-28T05:07:08.703Z,1.38
2023-03-28T05:09:39.934Z,1.37
2023-03-28T05:12:07.572Z,1.40
2023-03-28T05:14:50.430Z,1.37
2023-03-28T05:17:17.327Z,1.41
2023-03-28T05:20:09.032Z,1.40
2023-03-28T05:22:47.479Z,1.49
2023-03-28T05:25:14.142Z,1.57
2023-03-28T05:27:41.207Z,1.65
2023-03-28T05:30:08.130Z,1.64
2023-03-28T05:32:37.709Z,1.61
2023-03-28T05:35:05.840Z,1.75
2023-03-28T05:37:43.552Z,1.66
2023-03-28T05:40:12.288Z,1.63
2023-03-28T05:42:41.163Z,1.69
2023-03-28T05:45:16.419Z,1.64
2023-03-28T05:47:56.958Z,1.70
2023-03-28T05:50:24.445Z,1.74
2023-03-28T05:52:58.458Z,1.81
2023-03-28T05:55:25.262Z,1.76
2023-03-28T05:57:52.141Z,1.74
2023-03-28T06:00:20.422Z,1.80
2023-03-28T06:02:51.997Z,1.80
2023-03-28T06:05:22.632Z,1.89
2023-03-28T06:07:49.641Z,1.99
2023-03-28T06:10:18.160Z,2.04
2023-03-28T06:12:56.256Z,2.20
2023-03-28T06:15:23.710Z,2.34
2023-03-28T06:17:52.651Z,2.46
2023-03-28T06:20:21.769Z,2.65
2023-03-28T06:22:53.167Z,2.76
2023-03-28T06:25:19.933Z,2.63
2023-03-28T06:27:46.552Z,2.75
2023-03-28T06:30:13.670Z,2.87
2023-03-28T06:32:47.532Z,2.95
2023-03-28T06:35:14.916Z,2.93
2023-03-28T06:37:41.594Z,2.97
2023-03-28T06:40:09.121Z,3.14
2023-03-28T06:42:38.214Z,2.93
2023-03-28T06:45:36.911Z,2.87
2023-03-28T06:48:07.634Z,2.98
2023-03-28T06:50:52.784Z,2.96
2023-03-28T06:53:21.136Z,2.97
2023-03-28T06:55:49.571Z,3.12
2023-03-28T06:58:18.952Z,3.27
2023-03-28T07:00:53.939Z,3.34
2023-03-28T07:03:43.738Z,3.28
2023-03-28T07:06:12.958Z,3.14
2023-03-28T07:08:39.803Z,3.15
2023-03-28T07:11:06.848Z,3.21
2023-03-28T07:13:33.600Z,3.33
2023-03-28T07:16:11.375Z,3.37
2023-03-28T07:18:38.508Z,3.42
2023-03-28T07:21:09.134Z,3.35
2023-03-28T07:23:36.337Z,3.30
2023-03-28T07:26:03.122Z,3.37
2023-03-28T07:28:29.969Z,3.59
2023-03-28T07:30:56.676Z,3.76
2023-03-28T07:33:30.877Z,3.76
2023-03-28T07:36:10.271Z,3.90
2023-03-28T07:38:37.172Z,3.95
2023-03-28T07:41:04.062Z,4.22
2023-03-28T07:43:31.107Z,4.16
2023-03-28T07:46:06.498Z,4.10
2023-03-28T07:48:36.276Z,3.92
2023-03-28T07:51:04.140Z,3.91
2023-03-28T07:53:33.133Z,4.01
2023-03-28T07:56:00.345Z,4.42
2023-03-28T07:58:43.140Z,4.36
2023-03-28T08:01:12.920Z,4.33
2023-03-28T08:03:46.409Z,4.57
2023-03-28T08:06:31.106Z,4.69
2023-03-28T08:09:01.825Z,4.93
2023-03-28T08:11:35.212Z,5.07
2023-03-28T08:14:04.706Z,4.97
2023-03-28T08:16:36.888Z,4.76
2023-03-28T08:19:10.582Z,4.61
2023-03-28T08:22:02.653Z,4.98
2023-03-28T08:24:36.414Z,5.45
2023-03-28T08:27:15.774Z,5.55
2023-03-28T08:29:47.678Z,5.17
2023-03-28T08:32:14.500Z,5.07
2023-03-28T08:34:43.500Z,4.78
2023-03-28T08:37:21.937Z,5.15
2023-03-28T08:39:50.002Z,5.48
2023-03-28T08:42:17.844Z,5.70
2023-03-28T08:45:05.730Z,5.54
2023-03-28T08:47:32.739Z,5.59
2023-03-28T08:49:59.586Z,5.18
2023-03-28T08:52:26.430Z,5.09
2023-03-28T08:54:56.293Z,5.00
2023-03-28T08:57:30.641Z,5.14
2023-03-28T09:00:09.185Z,5.37
2023-03-28T09:02:36.326Z,5.93
2023-03-28T09:05:22.488Z,6.11
2023-03-28T09:07:59.923Z,5.78
2023-03-28T09:10:32.911Z,5.99
2023-03-28T09:13:22.517Z,6.46
2023-03-28T09:15:52.280Z,6.60
2023-03-28T09:18:23.883Z,6.47
2023-03-28T09:20:54.831Z,6.54
2023-03-28T09:23:39.158Z,6.14
2023-03-28T09:26:36.367Z,6.41
2023-03-28T09:29:12.157Z,6.74
2023-03-28T09:31:45.961Z,6.97
2023-03-28T09:34:23.067Z,6.67
2023-03-28T09:36:51.828Z,6.75
2023-03-28T09:39:40.729Z,6.87
2023-03-28T09:42:08.021Z,6.85
2023-03-28T09:44:57.594Z,6.78
2023-03-28T09:48:04.055Z,6.92
2023-03-28T09:50:38.568Z,7.17
2023-03-28T09:53:07.639Z,7.13
2023-03-28T09:55:35.602Z,6.70
2023-03-28T09:58:06.824Z,6.61
2023-03-28T10:00:50.500Z,6.90
2023-03-28T10:03:36.243Z,7.12
2023-03-28T10:06:19.886Z,6.94
2023-03-28T10:08:52.362Z,6.91
2023-03-28T10:11:27.441Z,7.11
2023-03-28T10:13:57.604Z,7.29
2023-03-28T10:16:28.070Z,7.48
2023-03-28T10:19:15.877Z,7.49
2023-03-28T10:22:41.364Z,6.96
2023-03-28T10:25:08.815Z,6.54
2023-03-28T10:27:39.088Z,7.24
2023-03-28T10:30:09.610Z,7.29
2023-03-28T10:32:41.110Z,7.87
2023-03-28T10:35:31.117Z,7.60
2023-03-28T10:38:24.916Z,8.58
2023-03-28T10:41:12.810Z,7.95
2023-03-28T10:44:00.592Z,7.88
2023-03-28T10:46:41.184Z,7.41
2023-03-28T10:49:17.434Z,7.51
2023-03-28T10:51:51.357Z,7.97
2023-03-28T10:54:36.792Z,8.45
2023-03-28T10:57:06.894Z,8.35
2023-03-28T10:59:38.076Z,8.96
2023-03-28T11:02:24.931Z,9.49
2023-03-28T11:04:52.174Z,9.76
2023-03-28T11:07:43.569Z,10.14
2023-03-28T11:10:40.497Z,9.79
2023-03-28T11:13:26.065Z,9.40
2023-03-28T11:16:11.628Z,9.52
2023-03-28T11:18:57.305Z,9.71
2023-03-28T11:21:33.316Z,9.41
2023-03-28T11:24:05.868Z,9.74
2023-03-28T11:26:49.572Z,10.37
2023-03-28T11:29:19.190Z,10.57
2023-03-28T11:31:47.059Z,10.26
2023-03-28T11:34:15.431Z,10.38
2023-03-28T11:36:42.244Z,10.51
2023-03-28T11:39:22.917Z,10.50
2023-03-28T11:41:54.042Z,10.54
2023-03-28T11:44:33.763Z,10.17
2023-03-28T11:47:06.797Z,10.67
2023-03-28T11:49:34.671Z,11.19
2023-03-28T11:52:12.476Z,11.56
2023-03-28T11:54:44.632Z,11.52
2023-03-28T11:57:31.715Z,11.43
2023-03-28T12:00:06.954Z,11.87
2023-03-28T12:02:44.423Z,12.46
2023-03-28T12:05:47.748Z,12.85
2023-03-28T12:08:22.645Z,12.43
2023-03-28T12:10:52.354Z,12.33
2023-03-28T12:13:47.486Z,11.93
2023-03-28T12:16:21.401Z,11.88
2023-03-28T12:18:51.565Z,11.61
2023-03-28T12:21:42.682Z,10.75
2023-03-28T12:24:27.815Z,11.71
2023-03-28T12:27:12.907Z,11.93
2023-03-28T12:30:00.615Z,11.67
2023-03-28T12:32:34.804Z,11.61
2023-03-28T12:35:12.306Z,12.29
2023-03-28T12:38:02.134Z,12.68
2023-03-28T12:40:42.798Z,12.41
2023-03-28T12:43:10.764Z,12.05
2023-03-28T12:45:41.569Z,12.65
2023-03-28T12:48:15.750Z,13.34
2023-03-28T12:50:45.568Z,13.10
2023-03-28T12:53:13.030Z,13.31
2023-03-28T12:55:45.800Z,12.91
2023-03-28T12:58:22.476Z,12.93
2023-03-28T13:00:58.043Z,13.44
2023-03-28T13:04:03.842Z,12.75
2023-03-28T13:06:48.917Z,11.98
2023-03-28T13:09:34.021Z,11.20
2023-03-28T13:12:03.528Z,11.19
2023-03-28T13:14:32.383Z,11.16
2023-03-28T13:17:01.743Z,10.80
2023-03-28T13:19:43.835Z,10.43
2023-03-28T13:22:40.451Z,10.21
2023-03-28T13:25:21.089Z,10.14
2023-03-28T13:27:51.360Z,9.97
2023-03-28T13:30:27.701Z,9.87
2023-03-28T13:32:57.509Z,10.29
2023-03-28T13:35:35.636Z,9.66
2023-03-28T13:38:16.208Z,9.07
2023-03-28T13:41:06.350Z,9.44
2023-03-28T13:43:35.030Z,10.43
2023-03-28T13:46:21.410Z,11.07
2023-03-28T13:48:54.169Z,12.38
2023-03-28T13:51:24.703Z,12.54
2023-03-28T13:53:53.752Z,12.51
2023-03-28T13:56:24.958Z,12.81
2023-03-28T13:58:55.535Z,11.89
2023-03-28T14:01:24.677Z,11.18
2023-03-28T14:03:56.380Z,12.79
2023-03-28T14:06:27.369Z,12.83
2023-03-28T14:09:02.577Z,13.40
2023-03-28T14:11:30.605Z,13.98
2023-03-28T14:14:36.124Z,13.41
2023-03-28T14:17:06.904Z,13.69
2023-03-28T14:19:38.237Z,12.33
2023-03-28T14:22:08.684Z,12.90
2023-03-28T14:24:37.646Z,13.01
2023-03-28T14:27:09.784Z,12.77
2023-03-28T14:29:51.126Z,12.85
2023-03-28T14:32:21.974Z,13.21
2023-03-28T14:34:53.884Z,11.77
2023-03-28T14:37:22.571Z,12.67
2023-03-28T14:39:50.132Z,12.65
2023-03-28T14:42:20.093Z,13.85
2023-03-28T14:44:47.976Z,15.13
2023-03-28T14:47:21.568Z,15.17
2023-03-28T14:49:48.262Z,14.64
2023-03-28T14:52:18.777Z,14.73
2023-03-28T14:54:46.749Z,16.05
2023-03-28T14:57:16.760Z,16.55
2023-03-28T14:59:48.106Z,16.76
2023-03-28T15:02:20.834Z,15.63
2023-03-28T15:04:47.479Z,16.32
2023-03-28T15:07:26.496Z,15.54
2023-03-28T15:10:15.737Z,15.03
2023-03-28T15:12:45.373Z,14.30
2023-03-28T15:15:18.196Z,13.10
2023-03-28T15:17:45.034Z,12.53
2023-03-28T15:20:14.303Z,12.84
2023-03-28T15:22:45.370Z,14.17
2023-03-28T15:25:12.956Z,14.51
2023-03-28T15:27:39.732Z,15.80
2023-03-28T15:30:18.815Z,16.62
2023-03-28T15:32:45.809Z,17.10
2023-03-28T15:35:31.383Z,15.86
2023-03-28T15:38:08.573Z,16.23
2023-03-28T15:40:39.676Z,16.78
2023-03-28T15:43:25.900Z,16.55
2023-03-28T15:46:00.939Z,16.73
2023-03-28T15:48:28.773Z,16.59
2023-03-28T15:50:56.384Z,15.91
2023-03-28T15:53:26.031Z,15.09
2023-03-28T15:55:52.687Z,15.12
2023-03-28T15:58:20.428Z,14.93
2023-03-28T16:00:49.093Z,14.15
2023-03-28T16:03:19.762Z,12.90
2023-03-28T16:06:09.818Z,12.56
2023-03-28T16:08:39.265Z,11.45
2023-03-28T16:11:06.967Z,10.88
2023-03-28T16:13:36.695Z,10.86
2023-03-28T16:16:32.686Z,10.96
2023-03-28T16:19:24.581Z,12.53
2023-03-28T16:21:53.726Z,12.62
2023-03-28T16:24:20.639Z,11.60
2023-03-28T16:26:51.789Z,10.82
2023-03-28T16:29:18.457Z,10.14
2023-03-28T16:31:45.211Z,10.23
2023-03-28T16:34:11.974Z,10.50
2023-03-28T16:36:38.762Z,10.70
2023-03-28T16:39:06.359Z,10.29
2023-03-28T16:41:32.932Z,10.01
2023-03-28T16:43:59.779Z,9.90
2023-03-28T16:46:26.556Z,9.71
2023-03-28T16:48:53.281Z,9.26
2023-03-28T16:51:20.010Z,9.25
2023-03-28T16:53:46.805Z,8.94
2023-03-28T16:56:15.087Z,8.25
2023-03-28T16:58:44.236Z,8.01
2023-03-28T17:01:18.941Z,7.22
2023-03-28T17:03:46.178Z,7.06
2023-03-28T17:06:16.292Z,6.80
2023-03-28T17:08:43.607Z,6.81
2023-03-28T17:11:13.191Z,6.64
2023-03-28T17:13:40.550Z,6.55
2023-03-28T17:16:10.061Z,6.39
2023-03-28T17:18:37.005Z,6.16
2023-03-28T17:21:04.947Z,6.19
2023-03-28T17:23:32.898Z,6.37
2023-03-28T17:26:02.204Z,6.36
2023-03-28T17:28:31.203Z,6.29
2023-03-28T17:30:57.987Z,6.34
2023-03-28T17:33:29.695Z,6.31
2023-03-28T17:36:14.214Z,6.33
2023-03-28T17:38:40.984Z,6.39
2023-03-28T17:41:08.313Z,6.41
2023-03-28T17:43:34.899Z,6.22
2023-03-28T17:46:04.036Z,6.13
2023-03-28T17:48:31.408Z,6.26
2023-03-28T17:50:58.974Z,6.35
2023-03-28T17:53:25.591Z,6.52
2023-03-28T17:55:54.574Z,6.65
2023-03-28T17:58:21.238Z,6.60
2023-03-28T18:00:48.540Z,6.39
2023-03-28T18:03:17.782Z,6.34
2023-03-28T18:06:00.897Z,6.29
2023-03-28T18:08:31.038Z,6.17
2023-03-28T18:11:06.089Z,6.08
2023-03-28T18:13:35.489Z,6.12
2023-03-28T18:16:09.652Z,6.28
2023-03-28T18:18:38.823Z,6.29
2023-03-28T18:21:07.513Z,6.12
2023-03-28T18:23:38.799Z,5.95
2023-03-28T18:26:08.514Z,5.85
2023-03-28T18:28:37.740Z,5.81
2023-03-28T18:31:08.064Z,5.92
2023-03-28T18:33:36.882Z,5.90
2023-03-28T18:36:06.039Z,5.70
2023-03-28T18:38:39.161Z,5.75
2023-03-28T18:41:09.167Z,5.74
2023-03-28T18:43:37.349Z,5.50
2023-03-28T18:46:04.466Z,5.46
2023-03-28T18:48:34.498Z,5.65
2023-03-28T18:51:03.149Z,5.73
2023-03-28T18:53:30.015Z,5.65
2023-03-28T18:55:56.710Z,5.38
2023-03-28T18:58:24.087Z,5.13
2023-03-28T19:00:58.622Z,5.01
2023-03-28T19:03:26.964Z,4.93
2023-03-28T19:05:58.190Z,4.66
2023-03-28T19:08:28.130Z,4.49
2023-03-28T19:10:58.064Z,4.36
2023-03-28T19:13:25.445Z,4.35
2023-03-28T19:15:59.181Z,4.42
2023-03-28T19:18:28.740Z,4.65
2023-03-28T19:20:55.738Z,4.74
2023-03-28T19:23:25.931Z,4.65
2023-03-28T19:25:53.348Z,4.65
2023-03-28T19:28:20.120Z,4.69
2023-03-28T19:30:49.321Z,4.58
2023-03-28T19:33:16.301Z,4.51
2023-03-28T19:35:45.735Z,4.41
2023-03-28T19:38:12.428Z,4.25
2023-03-28T19:40:39.138Z,4.13
2023-03-28T19:43:08.141Z,4.06
2023-03-28T19:45:34.778Z,4.24
2023-03-28T19:48:01.569Z,4.39
2023-03-28T19:50:28.173Z,4.35
2023-03-28T19:52:54.765Z,4.21
2023-03-28T19:55:21.384Z,4.12
2023-03-28T19:57:47.981Z,4.23
2023-03-28T20:00:14.935Z,4.13
2023-03-28T20:02:41.917Z,4.07
2023-03-28T20:05:09.022Z,3.97
2023-03-28T20:07:38.965Z,3.99
2023-03-28T20:10:05.858Z,4.00
2023-03-28T20:12:34.581Z,3.96
2023-03-28T20:15:01.251Z,3.92
2023-03-28T20:17:27.849Z,4.13
2023-03-28T20:19:57.622Z,4.15
2023-03-28T20:22:25.888Z,4.00
2023-03-28T20:24:52.530Z,4.10
2023-03-28T20:27:19.598Z,4.11
2023-03-28T20:29:46.982Z,4.17
2023-03-28T20:32:18.111Z,4.28
2023-03-28T20:34:44.927Z,4.28
2023-03-28T20:37:14.157Z,4.25
2023-03-28T20:39:41.862Z,4.39
2023-03-28T20:42:09.126Z,4.56
2023-03-28T20:44:38.765Z,4.51
2023-03-28T20:47:06.584Z,4.40
2023-03-28T20:49:33.779Z,4.24
2023-03-28T20:52:02.930Z,4.20
2023-03-28T20:54:29.546Z,4.25
2023-03-28T20:56:56.275Z,4.33
2023-03-28T20:59:23.848Z,4.46
2023-03-28T21:01:51.615Z,4.37
2023-03-28T21:04:18.244Z,4.37
2023-03-28T21:06:45.346Z,4.25
2023-03-28T21:09:18.169Z,4.35
2023-03-28T21:11:45.151Z,4.19
2023-03-28T21:14:12.530Z,4.12
2023-03-28T21:16:39.181Z,4.13
2023-03-28T21:19:05.894Z,4.05
2023-03-28T21:21:34.438Z,4.09
2023-03-28T21:24:01.724Z,3.96
2023-03-28T21:26:29.293Z,3.79
2023-03-28T21:28:58.776Z,3.71
2023-03-28T21:31:26.615Z,3.78
2023-03-28T21:33:59.326Z,3.94
2023-03-28T21:36:26.801Z,3.90
2023-03-28T21:38:56.077Z,4.06
2023-03-28T21:41:27.138Z,3.81
2023-03-28T21:43:54.709Z,3.61
2023-03-28T21:46:24.016Z,3.55
2023-03-28T21:48:51.231Z,3.35
2023-03-28T21:51:18.031Z,3.52
2023-03-28T21:53:47.118Z,3.60
2023-03-28T21:56:16.810Z,3.62
2023-03-28T21:58:46.274Z,3.67
2023-03-28T22:01:13.870Z,3.71
2023-03-28T22:03:40.689Z,3.87
2023-03-28T22:06:12.434Z,4.09
2023-03-28T22:08:39.706Z,4.12
2023-03-28T22:11:14.512Z,3.88
2023-03-28T22:13:45.400Z,3.65
2023-03-28T22:16:15.554Z,3.63
2023-03-28T22:18:50.140Z,3.78
2023-03-28T22:21:19.790Z,3.85
2023-03-28T22:23:51.401Z,3.82
2023-03-28T22:26:18.174Z,3.82
2023-03-28T22:28:44.885Z,3.77
2023-03-28T22:31:12.008Z,3.81
2023-03-28T22:33:39.289Z,3.89
2023-03-28T22:36:06.368Z,3.86
2023-03-28T22:38:33.034Z,3.87
2023-03-28T22:41:06.051Z,3.81
2023-03-28T22:43:33.620Z,3.73
2023-03-28T22:46:00.187Z,3.73
2023-03-28T22:48:29.998Z,3.83
2023-03-28T22:50:57.170Z,3.75
2023-03-28T22:53:27.375Z,3.57
2023-03-28T22:55:54.812Z,3.56
2023-03-28T22:58:26.513Z,3.64
2023-03-28T23:00:56.255Z,3.67
2023-03-28T23:03:25.106Z,3.75
2023-03-28T23:05:51.889Z,3.65
2023-03-28T23:08:19.415Z,3.48
2023-03-28T23:10:46.661Z,3.46
2023-03-28T23:13:16.509Z,3.49
2023-03-28T23:15:45.861Z,3.51
2023-03-28T23:18:12.855Z,3.46
2023-03-28T23:20:39.653Z,3.51
2023-03-28T23:23:06.815Z,3.62
2023-03-28T23:25:37.027Z,3.66
2023-03-28T23:28:06.491Z,3.67
2023-03-28T23:30:35.660Z,3.60
2023-03-28T23:33:04.932Z,3.54
2023-03-28T23:35:31.625Z,3.53
2023-03-28T23:37:58.330Z,3.48
2023-03-28T23:40:30.485Z,3.48
2023-03-28T23:43:00.085Z,3.38
2023-03-28T23:45:26.782Z,3.36
2023-03-28T23:47:53.444Z,3.43
2023-03-28T23:50:20.120Z,3.56
2023-03-28T23:52:46.832Z,3.66
2023-03-28T23:55:16.319Z,3.77
2023-03-28T23:57:45.600Z,3.60
